sensor_id;sensor_type;location;lat;lon;timestamp;temperature;humidity
66596;SHT31;59017;49.252;18.838;2022-08-06T00:01:34;25.39;55.85
66596;SHT31;59017;49.252;18.838;2022-08-06T00:04:00;25.41;55.69
66596;SHT31;59017;49.252;18.838;2022-08-06T00:06:25;25.43;55.76
66596;SHT31;59017;49.252;18.838;2022-08-06T00:08:52;25.41;55.90
66596;SHT31;59017;49.252;18.838;2022-08-06T00:11:17;25.41;55.90
66596;SHT31;59017;49.252;18.838;2022-08-06T00:13:43;25.39;55.91
66596;SHT31;59017;49.252;18.838;2022-08-06T00:16:08;25.32;56.01
66596;SHT31;59017;49.252;18.838;2022-08-06T00:18:34;25.34;56.05
66596;SHT31;59017;49.252;18.838;2022-08-06T00:20:59;25.35;55.97
66596;SHT31;59017;49.252;18.838;2022-08-06T00:23:25;25.32;56.03
66596;SHT31;59017;49.252;18.838;2022-08-06T00:25:52;25.35;56.10
66596;SHT31;59017;49.252;18.838;2022-08-06T00:28:17;25.31;56.04
66596;SHT31;59017;49.252;18.838;2022-08-06T00:30:43;25.32;56.05
66596;SHT31;59017;49.252;18.838;2022-08-06T00:33:08;25.32;56.09
66596;SHT31;59017;49.252;18.838;2022-08-06T00:35:34;25.25;56.10
66596;SHT31;59017;49.252;18.838;2022-08-06T00:37:59;25.31;56.15
66596;SHT31;59017;49.252;18.838;2022-08-06T00:40:27;25.29;56.16
66596;SHT31;59017;49.252;18.838;2022-08-06T00:42:55;25.26;56.15
66596;SHT31;59017;49.252;18.838;2022-08-06T00:45:21;25.25;56.34
66596;SHT31;59017;49.252;18.838;2022-08-06T00:47:46;25.22;56.34
66596;SHT31;59017;49.252;18.838;2022-08-06T00:50:12;25.18;56.44
66596;SHT31;59017;49.252;18.838;2022-08-06T00:52:37;25.19;56.42
66596;SHT31;59017;49.252;18.838;2022-08-06T00:55:03;25.15;56.36
66596;SHT31;59017;49.252;18.838;2022-08-06T00:57:29;25.16;56.30
66596;SHT31;59017;49.252;18.838;2022-08-06T00:59:54;25.22;56.21
66596;SHT31;59017;49.252;18.838;2022-08-06T01:02:20;25.21;56.12
66596;SHT31;59017;49.252;18.838;2022-08-06T01:04:45;25.18;55.99
66596;SHT31;59017;49.252;18.838;2022-08-06T01:07:11;24.87;56.78
66596;SHT31;59017;49.252;18.838;2022-08-06T01:09:36;24.95;56.54
66596;SHT31;59017;49.252;18.838;2022-08-06T01:12:02;24.78;57.07
66596;SHT31;59017;49.252;18.838;2022-08-06T01:14:27;24.35;58.44
66596;SHT31;59017;49.252;18.838;2022-08-06T01:17:02;24.18;58.99
66596;SHT31;59017;49.252;18.838;2022-08-06T01:19:51;24.49;58.06
66596;SHT31;59017;49.252;18.838;2022-08-06T01:25:42;24.59;57.26
66596;SHT31;59017;49.252;18.838;2022-08-06T01:28:23;24.66;57.13
66596;SHT31;59017;49.252;18.838;2022-08-06T01:30:53;24.43;57.71
66596;SHT31;59017;49.252;18.838;2022-08-06T01:33:33;24.39;57.84
66596;SHT31;59017;49.252;18.838;2022-08-06T01:36:05;24.53;57.46
66596;SHT31;59017;49.252;18.838;2022-08-06T01:38:34;24.41;57.77
66596;SHT31;59017;49.252;18.838;2022-08-06T01:41:04;24.16;58.44
66596;SHT31;59017;49.252;18.838;2022-08-06T01:43:32;24.50;57.29
66596;SHT31;59017;49.252;18.838;2022-08-06T01:46:00;24.59;57.11
66596;SHT31;59017;49.252;18.838;2022-08-06T01:48:27;24.48;57.27
66596;SHT31;59017;49.252;18.838;2022-08-06T01:50:59;24.55;57.29
66596;SHT31;59017;49.252;18.838;2022-08-06T01:53:34;24.61;56.78
66596;SHT31;59017;49.252;18.838;2022-08-06T01:56:03;24.61;56.64
66596;SHT31;59017;49.252;18.838;2022-08-06T01:58:41;24.59;56.64
66596;SHT31;59017;49.252;18.838;2022-08-06T02:01:11;24.44;57.12
66596;SHT31;59017;49.252;18.838;2022-08-06T02:03:42;24.33;57.42
66596;SHT31;59017;49.252;18.838;2022-08-06T02:06:08;24.37;57.31
66596;SHT31;59017;49.252;18.838;2022-08-06T02:08:37;24.28;57.67
66596;SHT31;59017;49.252;18.838;2022-08-06T02:11:06;24.16;58.08
66596;SHT31;59017;49.252;18.838;2022-08-06T02:13:33;23.82;58.87
66596;SHT31;59017;49.252;18.838;2022-08-06T02:16:02;23.88;58.84
66596;SHT31;59017;49.252;18.838;2022-08-06T02:18:30;24.22;57.94
66596;SHT31;59017;49.252;18.838;2022-08-06T02:21:00;24.36;57.50
66596;SHT31;59017;49.252;18.838;2022-08-06T02:23:26;24.36;57.58
66596;SHT31;59017;49.252;18.838;2022-08-06T02:25:54;24.46;57.13
66596;SHT31;59017;49.252;18.838;2022-08-06T02:28:23;24.50;56.97
66596;SHT31;59017;49.252;18.838;2022-08-06T02:30:50;24.43;57.28
66596;SHT31;59017;49.252;18.838;2022-08-06T02:33:17;24.39;57.38
66596;SHT31;59017;49.252;18.838;2022-08-06T02:35:54;24.44;57.29
66596;SHT31;59017;49.252;18.838;2022-08-06T02:38:35;24.46;57.33
66596;SHT31;59017;49.252;18.838;2022-08-06T02:44:40;24.23;57.99
66596;SHT31;59017;49.252;18.838;2022-08-06T02:47:17;24.40;57.58
66596;SHT31;59017;49.252;18.838;2022-08-06T02:49:45;24.49;57.48
66596;SHT31;59017;49.252;18.838;2022-08-06T02:52:23;24.28;57.88
66596;SHT31;59017;49.252;18.838;2022-08-06T02:54:56;24.29;57.88
66596;SHT31;59017;49.252;18.838;2022-08-06T02:57:31;24.39;57.72
66596;SHT31;59017;49.252;18.838;2022-08-06T03:00:02;24.33;57.94
66596;SHT31;59017;49.252;18.838;2022-08-06T03:02:29;24.28;57.83
66596;SHT31;59017;49.252;18.838;2022-08-06T03:04:57;24.41;57.74
66596;SHT31;59017;49.252;18.838;2022-08-06T03:07:26;24.49;57.63
66596;SHT31;59017;49.252;18.838;2022-08-06T03:09:53;24.52;57.49
66596;SHT31;59017;49.252;18.838;2022-08-06T03:12:20;24.44;57.85
66596;SHT31;59017;49.252;18.838;2022-08-06T03:14:48;24.48;57.81
66596;SHT31;59017;49.252;18.838;2022-08-06T03:17:15;24.49;57.61
66596;SHT31;59017;49.252;18.838;2022-08-06T03:19:43;24.52;57.56
66596;SHT31;59017;49.252;18.838;2022-08-06T03:22:10;24.41;57.89
66596;SHT31;59017;49.252;18.838;2022-08-06T03:24:39;24.29;58.18
66596;SHT31;59017;49.252;18.838;2022-08-06T03:27:06;24.43;57.83
66596;SHT31;59017;49.252;18.838;2022-08-06T03:29:33;24.28;58.32
66596;SHT31;59017;49.252;18.838;2022-08-06T03:32:00;24.43;58.02
66596;SHT31;59017;49.252;18.838;2022-08-06T03:34:32;24.44;57.86
66596;SHT31;59017;49.252;18.838;2022-08-06T03:37:00;24.49;57.84
66596;SHT31;59017;49.252;18.838;2022-08-06T03:39:29;24.48;57.75
66596;SHT31;59017;49.252;18.838;2022-08-06T03:41:55;24.39;58.17
66596;SHT31;59017;49.252;18.838;2022-08-06T03:44:21;24.18;58.61
66596;SHT31;59017;49.252;18.838;2022-08-06T03:46:58;24.37;58.09
66596;SHT31;59017;49.252;18.838;2022-08-06T03:49:40;23.89;59.30
66596;SHT31;59017;49.252;18.838;2022-08-06T03:52:11;23.81;59.75
66596;SHT31;59017;49.252;18.838;2022-08-06T03:54:44;24.15;58.77
66596;SHT31;59017;49.252;18.838;2022-08-06T03:57:11;24.26;58.17
66596;SHT31;59017;49.252;18.838;2022-08-06T03:59:40;23.95;58.93
66596;SHT31;59017;49.252;18.838;2022-08-06T04:02:07;23.88;59.40
66596;SHT31;59017;49.252;18.838;2022-08-06T04:04:36;23.82;59.28
66596;SHT31;59017;49.252;18.838;2022-08-06T04:07:03;23.61;59.67
66596;SHT31;59017;49.252;18.838;2022-08-06T04:09:31;23.81;59.21
66596;SHT31;59017;49.252;18.838;2022-08-06T04:12:01;23.75;59.15
66596;SHT31;59017;49.252;18.838;2022-08-06T04:14:28;23.94;58.71
66596;SHT31;59017;49.252;18.838;2022-08-06T04:16:53;23.95;58.57
66596;SHT31;59017;49.252;18.838;2022-08-06T04:19:20;23.98;58.31
66596;SHT31;59017;49.252;18.838;2022-08-06T04:21:47;24.09;58.02
66596;SHT31;59017;49.252;18.838;2022-08-06T04:24:14;24.12;58.09
66596;SHT31;59017;49.252;18.838;2022-08-06T04:26:42;23.95;58.62
66596;SHT31;59017;49.252;18.838;2022-08-06T04:29:11;24.06;58.21
66596;SHT31;59017;49.252;18.838;2022-08-06T04:31:37;24.15;58.16
66596;SHT31;59017;49.252;18.838;2022-08-06T04:34:04;24.13;58.48
66596;SHT31;59017;49.252;18.838;2022-08-06T04:36:31;24.29;58.15
66596;SHT31;59017;49.252;18.838;2022-08-06T04:38:57;24.18;58.57
66596;SHT31;59017;49.252;18.838;2022-08-06T04:41:23;24.25;58.23
66596;SHT31;59017;49.252;18.838;2022-08-06T04:43:49;24.33;58.08
66596;SHT31;59017;49.252;18.838;2022-08-06T04:46:15;24.30;58.42
66596;SHT31;59017;49.252;18.838;2022-08-06T04:48:40;24.37;58.20
66596;SHT31;59017;49.252;18.838;2022-08-06T04:51:07;24.28;58.55
66596;SHT31;59017;49.252;18.838;2022-08-06T04:53:39;24.40;58.25
66596;SHT31;59017;49.252;18.838;2022-08-06T04:56:06;24.41;58.17
66596;SHT31;59017;49.252;18.838;2022-08-06T04:58:32;24.29;58.72
66596;SHT31;59017;49.252;18.838;2022-08-06T05:00:59;24.40;58.35
66596;SHT31;59017;49.252;18.838;2022-08-06T05:03:25;24.39;58.72
66596;SHT31;59017;49.252;18.838;2022-08-06T05:08:42;24.35;58.75
66596;SHT31;59017;49.252;18.838;2022-08-06T05:11:39;24.44;58.40
66596;SHT31;59017;49.252;18.838;2022-08-06T05:14:19;24.44;58.82
66596;SHT31;59017;49.252;18.838;2022-08-06T05:16:47;24.52;58.37
66596;SHT31;59017;49.252;18.838;2022-08-06T05:19:31;24.23;59.50
66596;SHT31;59017;49.252;18.838;2022-08-06T05:21:59;24.18;59.04
66596;SHT31;59017;49.252;18.838;2022-08-06T05:24:27;24.21;58.86
66596;SHT31;59017;49.252;18.838;2022-08-06T05:26:53;24.23;58.66
66596;SHT31;59017;49.252;18.838;2022-08-06T05:29:20;24.33;58.31
66596;SHT31;59017;49.252;18.838;2022-08-06T05:31:46;24.33;58.53
66596;SHT31;59017;49.252;18.838;2022-08-06T05:34:13;24.35;58.56
66596;SHT31;59017;49.252;18.838;2022-08-06T05:36:39;24.41;58.23
66596;SHT31;59017;49.252;18.838;2022-08-06T05:39:06;24.49;57.83
66596;SHT31;59017;49.252;18.838;2022-08-06T05:41:32;24.49;58.24
66596;SHT31;59017;49.252;18.838;2022-08-06T05:44:01;24.48;57.90
66596;SHT31;59017;49.252;18.838;2022-08-06T05:46:31;24.50;57.95
66596;SHT31;59017;49.252;18.838;2022-08-06T05:49:38;24.44;58.25
66596;SHT31;59017;49.252;18.838;2022-08-06T05:52:21;24.46;58.29
66596;SHT31;59017;49.252;18.838;2022-08-06T05:54:55;24.48;58.39
66596;SHT31;59017;49.252;18.838;2022-08-06T06:00:03;24.44;58.71
66596;SHT31;59017;49.252;18.838;2022-08-06T06:02:35;24.44;59.06
66596;SHT31;59017;49.252;18.838;2022-08-06T06:05:02;24.49;59.12
66596;SHT31;59017;49.252;18.838;2022-08-06T06:07:28;24.46;59.26
66596;SHT31;59017;49.252;18.838;2022-08-06T06:09:55;24.41;59.03
66596;SHT31;59017;49.252;18.838;2022-08-06T06:12:22;24.41;59.27
66596;SHT31;59017;49.252;18.838;2022-08-06T06:14:48;24.39;59.54
66596;SHT31;59017;49.252;18.838;2022-08-06T06:20:24;24.40;59.44
66596;SHT31;59017;49.252;18.838;2022-08-06T06:22:55;24.55;59.10
66596;SHT31;59017;49.252;18.838;2022-08-06T06:28:30;24.66;58.61
66596;SHT31;59017;49.252;18.838;2022-08-06T06:34:07;24.76;58.50
66596;SHT31;59017;49.252;18.838;2022-08-06T06:39:21;24.76;58.36
66596;SHT31;59017;49.252;18.838;2022-08-06T06:41:53;24.86;58.27
66596;SHT31;59017;49.252;18.838;2022-08-06T06:47:22;24.83;58.37
66596;SHT31;59017;49.252;18.838;2022-08-06T06:50:04;24.84;58.50
66596;SHT31;59017;49.252;18.838;2022-08-06T06:52:38;24.83;58.49
66596;SHT31;59017;49.252;18.838;2022-08-06T06:55:43;24.80;58.67
66596;SHT31;59017;49.252;18.838;2022-08-06T06:58:15;24.83;58.47
66596;SHT31;59017;49.252;18.838;2022-08-06T07:00:42;24.83;58.59
66596;SHT31;59017;49.252;18.838;2022-08-06T07:03:08;24.77;58.81
66596;SHT31;59017;49.252;18.838;2022-08-06T07:05:35;24.76;59.01
66596;SHT31;59017;49.252;18.838;2022-08-06T07:08:03;24.64;59.59
66596;SHT31;59017;49.252;18.838;2022-08-06T07:10:31;24.73;59.46
66596;SHT31;59017;49.252;18.838;2022-08-06T07:12:57;24.68;59.53
66596;SHT31;59017;49.252;18.838;2022-08-06T07:15:25;24.70;59.48
66596;SHT31;59017;49.252;18.838;2022-08-06T07:17:52;24.64;59.88
66596;SHT31;59017;49.252;18.838;2022-08-06T07:20:26;24.67;59.78
66596;SHT31;59017;49.252;18.838;2022-08-06T07:22:54;24.66;59.90
66596;SHT31;59017;49.252;18.838;2022-08-06T07:25:20;24.70;59.76
66596;SHT31;59017;49.252;18.838;2022-08-06T07:27:50;24.61;60.14
66596;SHT31;59017;49.252;18.838;2022-08-06T07:30:19;24.64;60.20
66596;SHT31;59017;49.252;18.838;2022-08-06T07:32:46;24.66;59.98
66596;SHT31;59017;49.252;18.838;2022-08-06T07:35:13;24.63;60.33
66596;SHT31;59017;49.252;18.838;2022-08-06T07:37:57;24.59;60.53
66596;SHT31;59017;49.252;18.838;2022-08-06T07:40:30;24.61;60.53
66596;SHT31;59017;49.252;18.838;2022-08-06T07:43:24;24.61;60.54
66596;SHT31;59017;49.252;18.838;2022-08-06T07:45:52;24.71;60.42
66596;SHT31;59017;49.252;18.838;2022-08-06T07:48:40;24.64;60.54
66596;SHT31;59017;49.252;18.838;2022-08-06T07:51:09;24.64;60.65
66596;SHT31;59017;49.252;18.838;2022-08-06T07:53:37;24.63;60.60
66596;SHT31;59017;49.252;18.838;2022-08-06T07:56:05;24.60;60.91
66596;SHT31;59017;49.252;18.838;2022-08-06T07:58:32;24.59;60.92
66596;SHT31;59017;49.252;18.838;2022-08-06T08:00:59;24.63;60.77
66596;SHT31;59017;49.252;18.838;2022-08-06T08:03:25;24.60;61.01
66596;SHT31;59017;49.252;18.838;2022-08-06T08:06:17;24.55;61.22
66596;SHT31;59017;49.252;18.838;2022-08-06T08:08:51;24.55;61.32
66596;SHT31;59017;49.252;18.838;2022-08-06T08:11:17;24.49;61.71
66596;SHT31;59017;49.252;18.838;2022-08-06T08:13:43;24.52;61.53
66596;SHT31;59017;49.252;18.838;2022-08-06T08:16:13;24.48;61.59
66596;SHT31;59017;49.252;18.838;2022-08-06T08:18:39;24.43;61.87
66596;SHT31;59017;49.252;18.838;2022-08-06T08:21:05;24.49;61.63
66596;SHT31;59017;49.252;18.838;2022-08-06T08:23:32;24.52;61.64
66596;SHT31;59017;49.252;18.838;2022-08-06T08:25:59;24.52;61.64
66596;SHT31;59017;49.252;18.838;2022-08-06T08:28:27;24.44;61.95
66596;SHT31;59017;49.252;18.838;2022-08-06T08:30:54;24.26;62.47
66596;SHT31;59017;49.252;18.838;2022-08-06T08:33:23;24.32;62.45
66596;SHT31;59017;49.252;18.838;2022-08-06T08:35:49;24.35;62.38
66596;SHT31;59017;49.252;18.838;2022-08-06T08:38:15;24.26;62.39
66596;SHT31;59017;49.252;18.838;2022-08-06T08:40:41;24.02;62.90
66596;SHT31;59017;49.252;18.838;2022-08-06T08:43:07;23.84;63.57
66596;SHT31;59017;49.252;18.838;2022-08-06T08:45:39;23.71;63.76
66596;SHT31;59017;49.252;18.838;2022-08-06T08:48:06;23.78;63.76
66596;SHT31;59017;49.252;18.838;2022-08-06T08:50:33;23.82;63.31
66596;SHT31;59017;49.252;18.838;2022-08-06T08:53:25;23.91;62.82
66596;SHT31;59017;49.252;18.838;2022-08-06T08:55:52;24.00;62.49
66596;SHT31;59017;49.252;18.838;2022-08-06T08:58:18;23.97;62.29
66596;SHT31;59017;49.252;18.838;2022-08-06T09:00:44;24.01;62.13
66596;SHT31;59017;49.252;18.838;2022-08-06T09:03:10;24.00;62.14
66596;SHT31;59017;49.252;18.838;2022-08-06T09:05:36;23.88;62.12
66596;SHT31;59017;49.252;18.838;2022-08-06T09:08:02;23.78;62.24
66596;SHT31;59017;49.252;18.838;2022-08-06T09:10:29;23.81;61.94
66596;SHT31;59017;49.252;18.838;2022-08-06T09:12:55;23.84;61.79
66596;SHT31;59017;49.252;18.838;2022-08-06T09:15:21;23.55;62.06
66596;SHT31;59017;49.252;18.838;2022-08-06T09:17:48;23.74;61.71
66596;SHT31;59017;49.252;18.838;2022-08-06T09:20:14;23.84;61.47
66596;SHT31;59017;49.252;18.838;2022-08-06T09:22:41;24.02;60.92
66596;SHT31;59017;49.252;18.838;2022-08-06T09:25:39;24.21;60.50
66596;SHT31;59017;49.252;18.838;2022-08-06T09:28:31;24.32;60.15
66596;SHT31;59017;49.252;18.838;2022-08-06T09:31:08;24.40;59.96
66596;SHT31;59017;49.252;18.838;2022-08-06T09:33:36;24.50;59.83
66596;SHT31;59017;49.252;18.838;2022-08-06T09:36:07;24.56;59.61
66596;SHT31;59017;49.252;18.838;2022-08-06T09:38:55;24.61;59.44
66596;SHT31;59017;49.252;18.838;2022-08-06T09:41:21;24.66;59.30
66596;SHT31;59017;49.252;18.838;2022-08-06T09:43:49;24.70;59.16
66596;SHT31;59017;49.252;18.838;2022-08-06T09:46:15;24.74;59.10
66596;SHT31;59017;49.252;18.838;2022-08-06T09:49:01;24.78;58.94
66596;SHT31;59017;49.252;18.838;2022-08-06T09:51:27;24.84;58.85
66596;SHT31;59017;49.252;18.838;2022-08-06T09:53:58;24.84;58.66
66596;SHT31;59017;49.252;18.838;2022-08-06T09:56:25;24.88;58.61
66596;SHT31;59017;49.252;18.838;2022-08-06T09:59:03;24.90;58.54
66596;SHT31;59017;49.252;18.838;2022-08-06T10:01:40;24.94;58.54
66596;SHT31;59017;49.252;18.838;2022-08-06T10:04:07;24.92;58.46
66596;SHT31;59017;49.252;18.838;2022-08-06T10:06:50;24.95;58.33
66596;SHT31;59017;49.252;18.838;2022-08-06T10:09:16;24.97;58.29
66596;SHT31;59017;49.252;18.838;2022-08-06T10:11:41;24.97;58.32
66596;SHT31;59017;49.252;18.838;2022-08-06T10:14:32;24.99;58.37
66596;SHT31;59017;49.252;18.838;2022-08-06T10:17:18;24.99;58.25
66596;SHT31;59017;49.252;18.838;2022-08-06T10:22:29;24.99;58.15
66596;SHT31;59017;49.252;18.838;2022-08-06T10:24:55;25.04;58.09
66596;SHT31;59017;49.252;18.838;2022-08-06T10:27:25;25.03;58.20
66596;SHT31;59017;49.252;18.838;2022-08-06T10:29:54;25.04;58.18
66596;SHT31;59017;49.252;18.838;2022-08-06T10:32:37;25.04;58.20
66596;SHT31;59017;49.252;18.838;2022-08-06T10:35:05;25.05;58.08
66596;SHT31;59017;49.252;18.838;2022-08-06T10:37:33;25.05;58.00
66596;SHT31;59017;49.252;18.838;2022-08-06T10:40:02;25.04;58.01
66596;SHT31;59017;49.252;18.838;2022-08-06T10:42:29;25.05;58.01
66596;SHT31;59017;49.252;18.838;2022-08-06T10:44:56;25.08;57.99
66596;SHT31;59017;49.252;18.838;2022-08-06T10:47:22;25.08;57.96
66596;SHT31;59017;49.252;18.838;2022-08-06T10:49:49;25.11;57.95
66596;SHT31;59017;49.252;18.838;2022-08-06T10:52:15;25.10;57.93
66596;SHT31;59017;49.252;18.838;2022-08-06T10:54:41;25.11;57.89
66596;SHT31;59017;49.252;18.838;2022-08-06T10:57:07;25.11;57.89
66596;SHT31;59017;49.252;18.838;2022-08-06T10:59:34;25.11;57.94
66596;SHT31;59017;49.252;18.838;2022-08-06T11:02:27;25.08;57.89
66596;SHT31;59017;49.252;18.838;2022-08-06T11:04:57;25.15;57.81
66596;SHT31;59017;49.252;18.838;2022-08-06T11:07:47;25.11;57.91
66596;SHT31;59017;49.252;18.838;2022-08-06T11:15:50;25.16;57.69
66596;SHT31;59017;49.252;18.838;2022-08-06T11:18:18;25.14;57.67
66596;SHT31;59017;49.252;18.838;2022-08-06T11:20:48;25.16;57.70
66596;SHT31;59017;49.252;18.838;2022-08-06T11:25:43;25.16;57.65
66596;SHT31;59017;49.252;18.838;2022-08-06T11:28:13;25.16;57.54
66596;SHT31;59017;49.252;18.838;2022-08-06T11:30:43;25.15;57.57
66596;SHT31;59017;49.252;18.838;2022-08-06T11:33:10;25.16;57.58
66596;SHT31;59017;49.252;18.838;2022-08-06T11:38:11;25.19;57.56
66596;SHT31;59017;49.252;18.838;2022-08-06T11:46:31;25.21;57.41
66596;SHT31;59017;49.252;18.838;2022-08-06T11:51:41;25.21;57.57
66596;SHT31;59017;49.252;18.838;2022-08-06T11:59:28;25.22;57.47
66596;SHT31;59017;49.252;18.838;2022-08-06T12:01:53;25.19;57.46
66596;SHT31;59017;49.252;18.838;2022-08-06T12:09:41;25.22;57.33
66596;SHT31;59017;49.252;18.838;2022-08-06T12:14:55;25.21;57.30
66596;SHT31;59017;49.252;18.838;2022-08-06T12:17:22;25.26;57.21
66596;SHT31;59017;49.252;18.838;2022-08-06T12:19:50;25.26;57.34
66596;SHT31;59017;49.252;18.838;2022-08-06T12:22:19;25.25;57.18
66596;SHT31;59017;49.252;18.838;2022-08-06T12:24:50;25.25;57.12
66596;SHT31;59017;49.252;18.838;2022-08-06T12:27:16;25.26;57.11
66596;SHT31;59017;49.252;18.838;2022-08-06T12:29:43;25.28;57.15
66596;SHT31;59017;49.252;18.838;2022-08-06T12:34:55;25.31;57.03
66596;SHT31;59017;49.252;18.838;2022-08-06T12:37:32;25.31;56.97
66596;SHT31;59017;49.252;18.838;2022-08-06T12:40:01;25.34;56.94
66596;SHT31;59017;49.252;18.838;2022-08-06T12:42:45;25.36;56.97
66596;SHT31;59017;49.252;18.838;2022-08-06T12:45:11;25.34;56.97
66596;SHT31;59017;49.252;18.838;2022-08-06T12:47:36;25.36;56.90
66596;SHT31;59017;49.252;18.838;2022-08-06T12:50:19;25.36;56.94
66596;SHT31;59017;49.252;18.838;2022-08-06T12:53:04;25.38;56.83
66596;SHT31;59017;49.252;18.838;2022-08-06T12:55:31;25.38;56.71
66596;SHT31;59017;49.252;18.838;2022-08-06T12:57:57;25.42;56.74
66596;SHT31;59017;49.252;18.838;2022-08-06T13:00:23;25.45;56.47
66596;SHT31;59017;49.252;18.838;2022-08-06T13:02:50;25.43;56.39
66596;SHT31;59017;49.252;18.838;2022-08-06T13:05:17;25.45;56.50
66596;SHT31;59017;49.252;18.838;2022-08-06T13:07:43;25.45;56.62
66596;SHT31;59017;49.252;18.838;2022-08-06T13:10:10;25.49;56.58
66596;SHT31;59017;49.252;18.838;2022-08-06T13:12:36;25.47;56.53
66596;SHT31;59017;49.252;18.838;2022-08-06T13:15:13;25.47;56.48
66596;SHT31;59017;49.252;18.838;2022-08-06T13:17:39;25.45;56.32
66596;SHT31;59017;49.252;18.838;2022-08-06T13:20:05;25.47;56.43
66596;SHT31;59017;49.252;18.838;2022-08-06T13:22:31;25.46;56.47
66596;SHT31;59017;49.252;18.838;2022-08-06T13:25:14;25.47;56.35
66596;SHT31;59017;49.252;18.838;2022-08-06T13:27:42;25.46;56.47
66596;SHT31;59017;49.252;18.838;2022-08-06T13:30:09;25.46;56.51
66596;SHT31;59017;49.252;18.838;2022-08-06T13:32:35;25.46;56.55
66596;SHT31;59017;49.252;18.838;2022-08-06T13:35:07;25.46;56.39
66596;SHT31;59017;49.252;18.838;2022-08-06T13:37:49;25.47;56.35
66596;SHT31;59017;49.252;18.838;2022-08-06T13:40:16;25.47;56.36
66596;SHT31;59017;49.252;18.838;2022-08-06T13:42:53;25.47;56.33
66596;SHT31;59017;49.252;18.838;2022-08-06T13:45:24;25.49;56.09
66596;SHT31;59017;49.252;18.838;2022-08-06T13:48:02;25.47;56.34
66596;SHT31;59017;49.252;18.838;2022-08-06T13:50:29;25.50;56.37
66596;SHT31;59017;49.252;18.838;2022-08-06T13:52:54;25.47;56.37
66596;SHT31;59017;49.252;18.838;2022-08-06T13:55:24;25.46;56.40
66596;SHT31;59017;49.252;18.838;2022-08-06T13:57:50;25.49;56.39
66596;SHT31;59017;49.252;18.838;2022-08-06T14:00:16;25.46;56.36
66596;SHT31;59017;49.252;18.838;2022-08-06T14:02:41;25.47;56.46
66596;SHT31;59017;49.252;18.838;2022-08-06T14:05:07;25.46;56.47
66596;SHT31;59017;49.252;18.838;2022-08-06T14:07:33;25.46;56.35
66596;SHT31;59017;49.252;18.838;2022-08-06T14:09:58;25.46;56.19
66596;SHT31;59017;49.252;18.838;2022-08-06T14:12:24;25.46;56.31
66596;SHT31;59017;49.252;18.838;2022-08-06T14:14:49;25.47;56.30
66596;SHT31;59017;49.252;18.838;2022-08-06T14:17:15;25.46;56.35
66596;SHT31;59017;49.252;18.838;2022-08-06T14:19:41;25.45;56.54
66596;SHT31;59017;49.252;18.838;2022-08-06T14:22:06;25.45;56.37
66596;SHT31;59017;49.252;18.838;2022-08-06T14:24:33;25.45;56.10
66596;SHT31;59017;49.252;18.838;2022-08-06T14:26:59;25.43;56.30
66596;SHT31;59017;49.252;18.838;2022-08-06T14:29:24;25.45;56.31
66596;SHT31;59017;49.252;18.838;2022-08-06T14:31:50;25.45;56.28
66596;SHT31;59017;49.252;18.838;2022-08-06T14:34:16;25.45;56.37
66596;SHT31;59017;49.252;18.838;2022-08-06T14:36:42;25.46;56.32
66596;SHT31;59017;49.252;18.838;2022-08-06T14:39:07;25.43;56.29
66596;SHT31;59017;49.252;18.838;2022-08-06T14:41:37;25.45;56.23
66596;SHT31;59017;49.252;18.838;2022-08-06T14:44:21;25.45;56.16
66596;SHT31;59017;49.252;18.838;2022-08-06T14:47:05;25.45;56.26
66596;SHT31;59017;49.252;18.838;2022-08-06T14:49:34;25.46;56.25
66596;SHT31;59017;49.252;18.838;2022-08-06T14:51:59;25.43;56.20
66596;SHT31;59017;49.252;18.838;2022-08-06T14:54:25;25.43;56.12
66596;SHT31;59017;49.252;18.838;2022-08-06T14:56:51;25.45;56.26
66596;SHT31;59017;49.252;18.838;2022-08-06T14:59:16;25.46;56.24
66596;SHT31;59017;49.252;18.838;2022-08-06T15:01:43;25.43;56.26
66596;SHT31;59017;49.252;18.838;2022-08-06T15:04:09;25.43;56.09
66596;SHT31;59017;49.252;18.838;2022-08-06T15:06:34;25.45;56.12
66596;SHT31;59017;49.252;18.838;2022-08-06T15:08:59;25.41;56.25
66596;SHT31;59017;49.252;18.838;2022-08-06T15:11:25;25.46;56.17
66596;SHT31;59017;49.252;18.838;2022-08-06T15:13:50;25.41;56.17
66596;SHT31;59017;49.252;18.838;2022-08-06T15:16:16;25.42;56.10
66596;SHT31;59017;49.252;18.838;2022-08-06T15:18:41;25.43;56.05
66596;SHT31;59017;49.252;18.838;2022-08-06T15:21:08;25.42;56.18
66596;SHT31;59017;49.252;18.838;2022-08-06T15:23:33;25.42;56.02
66596;SHT31;59017;49.252;18.838;2022-08-06T15:25:59;25.42;56.18
66596;SHT31;59017;49.252;18.838;2022-08-06T15:28:25;25.39;56.02
66596;SHT31;59017;49.252;18.838;2022-08-06T15:30:54;25.39;56.16
66596;SHT31;59017;49.252;18.838;2022-08-06T15:33:19;25.41;56.03
66596;SHT31;59017;49.252;18.838;2022-08-06T15:35:45;25.36;56.24
66596;SHT31;59017;49.252;18.838;2022-08-06T15:38:11;25.39;55.94
66596;SHT31;59017;49.252;18.838;2022-08-06T15:40:38;25.39;56.13
66596;SHT31;59017;49.252;18.838;2022-08-06T15:43:03;25.36;56.15
66596;SHT31;59017;49.252;18.838;2022-08-06T15:45:29;25.36;56.10
66596;SHT31;59017;49.252;18.838;2022-08-06T15:47:54;25.36;56.04
66596;SHT31;59017;49.252;18.838;2022-08-06T15:50:21;25.35;55.95
66596;SHT31;59017;49.252;18.838;2022-08-06T15:52:47;25.35;56.17
66596;SHT31;59017;49.252;18.838;2022-08-06T15:55:12;25.34;56.07
66596;SHT31;59017;49.252;18.838;2022-08-06T15:57:38;25.35;56.11
66596;SHT31;59017;49.252;18.838;2022-08-06T16:00:05;25.38;56.04
66596;SHT31;59017;49.252;18.838;2022-08-06T16:02:31;25.38;56.15
66596;SHT31;59017;49.252;18.838;2022-08-06T16:04:56;25.36;55.91
66596;SHT31;59017;49.252;18.838;2022-08-06T16:07:22;25.35;56.09
66596;SHT31;59017;49.252;18.838;2022-08-06T16:09:47;25.35;55.95
66596;SHT31;59017;49.252;18.838;2022-08-06T16:12:13;25.35;56.01
66596;SHT31;59017;49.252;18.838;2022-08-06T16:14:39;25.35;55.99
66596;SHT31;59017;49.252;18.838;2022-08-06T16:17:05;25.35;56.04
66596;SHT31;59017;49.252;18.838;2022-08-06T16:19:30;25.36;56.05
66596;SHT31;59017;49.252;18.838;2022-08-06T16:21:56;25.35;55.94
66596;SHT31;59017;49.252;18.838;2022-08-06T16:24:21;25.34;56.02
66596;SHT31;59017;49.252;18.838;2022-08-06T16:26:47;25.32;56.06
66596;SHT31;59017;49.252;18.838;2022-08-06T16:29:12;25.32;56.07
66596;SHT31;59017;49.252;18.838;2022-08-06T16:31:38;25.32;56.02
66596;SHT31;59017;49.252;18.838;2022-08-06T16:34:04;25.31;56.14